Time;durP1;ratioP1;P1;durP2;ratioP2;P2;SDS_P1;SDS_P2;PMS_P1;PMS_P2;Temp;Humidity;BMP_temperature;BMP_pressure;BME280_temperature;BME280_humidity;BME280_pressure;Samples;Min_cycle;Max_cycle;Signal;HPM_P1;HPM_P2
2022/01/08 00:01:39;;;;;;;23.83;6.80;;;2.00;99.90;;;;;;4960287;28;20027;-88
2022/01/08 00:04:05;;;;;;;14.15;6.95;;;2.00;99.90;;;;;;4960319;28;20361;-87
2022/01/08 00:06:31;;;;;;;15.32;6.35;;;2.00;99.90;;;;;;4959844;28;20027;-87
2022/01/08 00:08:57;;;;;;;18.75;7.68;;;2.00;99.90;;;;;;4960131;28;20027;-88
2022/01/08 00:11:26;;;;;;;12.73;6.38;;;2.00;99.90;;;;;;4960215;28;20137;-87
2022/01/08 00:13:52;;;;;;;22.38;7.65;;;2.00;99.90;;;;;;4959804;28;20026;-88
2022/01/08 00:16:18;;;;;;;16.92;6.68;;;2.00;99.90;;;;;;4959723;28;20034;-87
2022/01/08 00:18:44;;;;;;;14.77;5.78;;;2.00;99.90;;;;;;4959482;28;20026;-87
2022/01/08 00:21:09;;;;;;;23.15;7.05;;;2.00;99.90;;;;;;4959462;28;20473;-90
2022/01/08 00:23:35;;;;;;;19.80;6.28;;;2.00;99.90;;;;;;4959486;28;20101;-88
2022/01/08 00:26:03;;;;;;;20.73;5.85;;;2.00;99.90;;;;;;4959843;28;20030;-89
2022/01/08 00:28:29;;;;;;;17.88;4.82;;;2.00;99.90;;;;;;4959827;28;20118;-89
2022/01/08 00:30:55;;;;;;;23.63;5.55;;;2.00;99.90;;;;;;4959760;28;20475;-89
2022/01/08 00:33:20;;;;;;;14.70;6.22;;;2.00;99.90;;;;;;4959664;28;20054;-89
2022/01/08 00:35:46;;;;;;;14.52;4.97;;;2.00;99.90;;;;;;4958989;28;20074;-89
2022/01/08 00:38:13;;;;;;;11.82;4.60;;;2.00;99.90;;;;;;4959441;28;20035;-88
2022/01/08 00:40:39;;;;;;;18.80;5.13;;;2.00;99.90;;;;;;4959537;28;20031;-89
2022/01/08 00:43:04;;;;;;;11.73;4.40;;;2.10;99.90;;;;;;4959259;28;20035;-88
2022/01/08 00:45:30;;;;;;;21.77;4.85;;;2.00;99.90;;;;;;4959093;28;20030;-90
2022/01/08 00:47:56;;;;;;;15.98;4.63;;;2.00;99.90;;;;;;4958914;28;20035;-89
2022/01/08 00:50:22;;;;;;;10.75;4.18;;;2.10;99.90;;;;;;4959179;28;20078;-89
2022/01/08 00:52:48;;;;;;;17.58;3.88;;;2.10;99.90;;;;;;4959221;28;20404;-89
2022/01/08 00:55:14;;;;;;;15.30;4.03;;;2.10;99.90;;;;;;4958829;28;20488;-88
2022/01/08 00:57:40;;;;;;;20.17;5.63;;;2.10;99.90;;;;;;4958996;28;20031;-89
2022/01/08 01:00:09;;;;;;;20.55;3.53;;;2.00;99.90;;;;;;4958736;28;20045;-90
2022/01/08 01:02:36;;;;;;;13.45;3.42;;;2.10;99.90;;;;;;4958751;28;20043;-89
2022/01/08 01:05:03;;;;;;;15.20;3.42;;;2.10;99.90;;;;;;4958506;28;20030;-89
2022/01/08 01:07:29;;;;;;;13.20;3.72;;;2.10;99.90;;;;;;4958569;28;20035;-89
2022/01/08 01:09:55;;;;;;;13.35;3.22;;;2.10;99.90;;;;;;4958655;28;20018;-89
2022/01/08 01:12:21;;;;;;;14.63;3.47;;;2.10;99.90;;;;;;4958593;28;20037;-89
2022/01/08 01:14:46;;;;;;;13.68;2.80;;;2.10;99.90;;;;;;4958611;28;20391;-88
2022/01/08 01:17:12;;;;;;;17.17;3.60;;;2.10;99.90;;;;;;4958622;28;20042;-88
2022/01/08 01:19:38;;;;;;;12.70;2.30;;;2.10;99.90;;;;;;4958632;28;20134;-88
2022/01/08 01:22:04;;;;;;;12.23;3.08;;;2.20;99.90;;;;;;4958592;28;20023;-90
2022/01/08 01:24:32;;;;;;;11.45;2.40;;;2.10;99.90;;;;;;4958326;28;20031;-88
2022/01/08 01:27:20;;;;;;;10.30;2.08;;;2.20;99.90;;;;;;4958367;28;20035;-88
2022/01/08 01:48:24;;;;;;;12.25;2.80;;;2.20;99.90;;;;;;4985109;28;20110;-89
2022/01/08 01:50:50;;;;;;;14.70;2.28;;;2.20;99.90;;;;;;4964887;28;20496;-89
2022/01/08 01:53:16;;;;;;;9.07;1.85;;;2.20;99.90;;;;;;4960272;28;20472;-89
2022/01/08 01:55:43;;;;;;;15.20;2.13;;;2.30;99.90;;;;;;4958887;28;20062;-88
2022/01/08 01:58:10;;;;;;;14.32;2.28;;;2.20;99.90;;;;;;4942544;28;20041;-89
2022/01/08 02:00:36;;;;;;;7.57;1.88;;;2.20;99.90;;;;;;4957953;28;20042;-89
2022/01/08 02:03:02;;;;;;;9.15;2.15;;;2.20;99.90;;;;;;4958305;28;20023;-89
2022/01/08 02:05:28;;;;;;;11.48;2.28;;;2.20;99.90;;;;;;4958452;28;20490;-89
2022/01/08 02:07:55;;;;;;;9.90;2.20;;;2.20;99.90;;;;;;4958503;28;20297;-89
2022/01/08 02:10:22;;;;;;;12.13;2.38;;;2.20;99.90;;;;;;4958612;28;20027;-88
2022/01/08 02:12:48;;;;;;;8.60;2.30;;;2.20;99.90;;;;;;4958077;28;20480;-89
2022/01/08 02:15:14;;;;;;;6.70;2.17;;;2.20;99.90;;;;;;4957931;28;20071;-89
2022/01/08 02:17:39;;;;;;;13.55;2.97;;;2.20;99.90;;;;;;4957640;28;20163;-88
2022/01/08 02:20:07;;;;;;;11.50;2.65;;;2.10;99.90;;;;;;4957473;28;20097;-88
2022/01/08 02:22:32;;;;;;;13.88;2.15;;;2.20;99.90;;;;;;4957877;28;20037;-89
2022/01/08 02:24:58;;;;;;;15.10;3.85;;;2.20;99.90;;;;;;4958062;28;20400;-89
2022/01/08 02:27:24;;;;;;;18.60;2.67;;;2.20;99.90;;;;;;4958245;28;20022;-88
2022/01/08 02:29:50;;;;;;;11.38;2.70;;;2.20;99.90;;;;;;4957636;28;20082;-88
2022/01/08 02:32:19;;;;;;;13.75;2.40;;;2.20;99.90;;;;;;4957282;28;20035;-89
2022/01/08 02:34:47;;;;;;;12.70;2.60;;;2.20;99.90;;;;;;4957387;28;20065;-89
2022/01/08 02:37:18;;;;;;;7.88;2.15;;;2.20;99.90;;;;;;4957506;28;20026;-88
2022/01/08 02:39:44;;;;;;;10.73;2.83;;;2.20;99.90;;;;;;4957314;28;20035;-88
2022/01/08 02:42:16;;;;;;;7.22;2.30;;;2.20;99.90;;;;;;4957085;28;20027;-89
2022/01/08 02:44:43;;;;;;;9.80;2.92;;;2.20;99.90;;;;;;4957078;28;20037;-88
2022/01/08 02:47:09;;;;;;;12.05;2.50;;;2.20;99.90;;;;;;4956996;28;20031;-88
2022/01/08 02:49:36;;;;;;;12.20;2.28;;;2.20;99.90;;;;;;4957406;28;20030;-89
2022/01/08 02:52:03;;;;;;;8.80;2.25;;;2.20;99.90;;;;;;4957312;28;20038;-88
2022/01/08 02:54:29;;;;;;;15.48;2.30;;;2.30;99.90;;;;;;4957111;28;20059;-89
2022/01/08 02:56:54;;;;;;;8.60;2.17;;;2.20;99.90;;;;;;4957375;28;20018;-89
2022/01/08 02:59:20;;;;;;;13.18;2.85;;;2.30;99.90;;;;;;4957044;28;20378;-90
2022/01/08 03:01:46;;;;;;;11.13;2.55;;;2.30;99.90;;;;;;4957495;28;20166;-89
2022/01/08 03:04:12;;;;;;;16.30;5.47;;;2.40;99.90;;;;;;4956967;28;20272;-88
2022/01/08 03:06:38;;;;;;;18.13;2.47;;;2.30;99.90;;;;;;4957185;28;20105;-88
2022/01/08 03:09:05;;;;;;;11.50;2.22;;;2.40;99.90;;;;;;4956983;28;20056;-90
2022/01/08 03:11:30;;;;;;;9.55;2.03;;;2.40;99.90;;;;;;4957001;28;20034;-89
2022/01/08 03:13:56;;;;;;;10.48;1.33;;;2.50;99.90;;;;;;4956757;28;20031;-90
2022/01/08 03:16:22;;;;;;;10.82;2.55;;;2.50;99.90;;;;;;4957070;28;20022;-89
2022/01/08 03:18:49;;;;;;;8.30;1.83;;;2.50;99.90;;;;;;4956757;28;20031;-89
2022/01/08 03:21:18;;;;;;;9.63;1.83;;;2.60;99.90;;;;;;4957207;28;20031;-89
2022/01/08 03:23:53;;;;;;;9.10;1.45;;;2.60;99.90;;;;;;4957219;28;20081;-89
2022/01/08 03:26:22;;;;;;;11.65;2.00;;;2.70;99.90;;;;;;4957279;28;20170;-89
2022/01/08 03:28:49;;;;;;;10.05;1.90;;;2.70;99.90;;;;;;4957020;28;20334;-90
2022/01/08 03:31:15;;;;;;;6.43;1.30;;;2.70;99.90;;;;;;4958921;28;20027;-89
2022/01/08 03:33:42;;;;;;;11.15;1.70;;;2.70;99.90;;;;;;4960683;28;20027;-90
2022/01/08 03:36:10;;;;;;;6.53;1.52;;;2.70;99.90;;;;;;4961062;28;20023;-89
2022/01/08 03:38:37;;;;;;;9.15;1.50;;;2.70;99.90;;;;;;4960901;28;20388;-89
2022/01/08 03:41:03;;;;;;;8.32;1.40;;;2.70;99.90;;;;;;4960802;28;20489;-90
2022/01/08 03:43:29;;;;;;;9.52;1.50;;;2.80;99.90;;;;;;4960170;28;20387;-89
2022/01/08 03:45:55;;;;;;;16.58;2.30;;;2.80;99.90;;;;;;4960906;28;20082;-89
2022/01/08 03:48:32;;;;;;;12.15;1.50;;;2.80;99.90;;;;;;4960371;28;20027;-90
2022/01/08 03:50:59;;;;;;;9.85;1.35;;;2.80;99.90;;;;;;4960292;28;20029;-89
2022/01/08 03:53:26;;;;;;;8.05;1.50;;;2.80;99.90;;;;;;4960003;28;20547;-90
2022/01/08 03:55:52;;;;;;;6.20;1.23;;;2.80;99.90;;;;;;4960352;28;20030;-90
2022/01/08 03:58:18;;;;;;;7.65;1.90;;;2.80;99.90;;;;;;4948624;29;20031;-90
2022/01/08 04:00:45;;;;;;;8.48;1.52;;;2.80;99.90;;;;;;4956911;29;20034;-91
2022/01/08 04:03:11;;;;;;;7.32;1.38;;;2.80;99.90;;;;;;4959224;28;20027;-90
2022/01/08 04:05:37;;;;;;;8.15;1.58;;;2.80;99.90;;;;;;4960119;28;20029;-90
2022/01/08 04:08:03;;;;;;;13.25;3.05;;;2.80;99.90;;;;;;4959957;28;20023;-90
2022/01/08 04:10:28;;;;;;;6.55;1.33;;;2.80;99.90;;;;;;4960302;28;20031;-90
2022/01/08 04:12:57;;;;;;;5.78;1.20;;;2.80;99.90;;;;;;4959986;28;20056;-90
2022/01/08 04:17:51;;;;;;;8.90;1.58;;;2.80;99.90;;;;;;4977094;28;20034;-90
2022/01/08 04:20:18;;;;;;;5.00;1.33;;;2.80;99.90;;;;;;4959701;28;20066;-91
2022/01/08 04:22:47;;;;;;;8.60;1.55;;;2.80;99.90;;;;;;4959750;28;20046;-89
2022/01/08 04:25:13;;;;;;;9.10;1.40;;;2.80;99.90;;;;;;4959599;28;20610;-89
2022/01/08 04:27:39;;;;;;;10.18;1.80;;;2.80;99.90;;;;;;4959169;28;20031;-90
2022/01/08 04:30:05;;;;;;;6.43;1.67;;;2.80;99.90;;;;;;4959739;28;20082;-89
2022/01/08 04:32:31;;;;;;;5.70;1.80;;;2.80;99.90;;;;;;4959336;28;20034;-90
2022/01/08 04:34:57;;;;;;;9.07;1.98;;;2.80;99.90;;;;;;4959643;28;20118;-90
2022/01/08 04:37:22;;;;;;;6.97;2.10;;;2.90;99.90;;;;;;4961207;28;20023;-89
2022/01/08 04:39:48;;;;;;;6.90;2.22;;;2.80;99.90;;;;;;4960900;28;20041;-90
2022/01/08 04:42:14;;;;;;;7.82;2.95;;;2.80;99.90;;;;;;4960207;28;20404;-88
2022/01/08 04:44:39;;;;;;;5.82;2.50;;;2.90;99.90;;;;;;4959558;28;20038;-89
2022/01/08 04:47:05;;;;;;;7.45;2.88;;;2.80;99.90;;;;;;4959429;28;20023;-89
2022/01/08 04:49:31;;;;;;;12.57;3.15;;;2.80;99.90;;;;;;4959233;28;20034;-90
2022/01/08 04:51:57;;;;;;;5.88;2.78;;;2.90;99.90;;;;;;4959159;28;20472;-91
2022/01/08 04:54:23;;;;;;;5.60;2.10;;;2.90;99.90;;;;;;4959092;28;20047;-89
2022/01/08 04:56:49;;;;;;;9.93;2.90;;;2.90;99.90;;;;;;4959033;28;20034;-90
2022/01/08 04:59:15;;;;;;;4.63;2.60;;;3.00;99.90;;;;;;4959037;28;20038;-89
2022/01/08 05:01:42;;;;;;;7.18;3.05;;;3.00;99.90;;;;;;4960198;28;20027;-89
2022/01/08 05:04:08;;;;;;;8.20;3.30;;;3.10;99.90;;;;;;4959492;28;20031;-90
2022/01/08 05:06:34;;;;;;;6.55;3.42;;;3.10;99.90;;;;;;4959397;28;20103;-89
2022/01/08 05:09:00;;;;;;;5.88;3.08;;;3.20;99.90;;;;;;4959064;28;20034;-90
2022/01/08 05:11:27;;;;;;;10.57;4.13;;;3.20;99.90;;;;;;4960124;28;20030;-89
2022/01/08 05:13:54;;;;;;;8.82;3.45;;;3.20;99.90;;;;;;4960847;28;20027;-90
2022/01/08 05:16:21;;;;;;;9.57;3.33;;;3.20;99.90;;;;;;4962109;28;20030;-90
2022/01/08 05:18:49;;;;;;;11.82;5.35;;;3.20;99.90;;;;;;4959280;28;20444;-90
2022/01/08 05:23:43;;;;;;;10.05;3.92;;;3.20;99.90;;;;;;4976574;28;20026;-90
2022/01/08 05:26:09;;;;;;;9.27;4.60;;;3.20;99.90;;;;;;4976089;28;20031;-90
2022/01/08 05:28:34;;;;;;;14.38;3.72;;;3.20;99.90;;;;;;4976091;28;20058;-89
2022/01/08 05:31:00;;;;;;;8.27;3.22;;;3.20;99.90;;;;;;4975658;28;20030;-90
2022/01/08 05:33:26;;;;;;;12.63;3.97;;;3.20;99.90;;;;;;4958781;28;20027;-89
2022/01/08 05:35:52;;;;;;;10.63;5.25;;;3.30;99.90;;;;;;4958739;28;20023;-89
2022/01/08 05:38:17;;;;;;;11.07;4.35;;;3.30;99.90;;;;;;4958593;28;20030;-88
2022/01/08 05:40:43;;;;;;;9.25;3.90;;;3.20;99.90;;;;;;4958369;28;20074;-89
2022/01/08 05:43:09;;;;;;;15.35;4.13;;;3.30;99.90;;;;;;4958785;28;20023;-90
2022/01/08 05:45:34;;;;;;;11.73;3.33;;;3.30;99.90;;;;;;4958956;28;20022;-90
2022/01/08 05:48:00;;;;;;;7.22;3.30;;;3.30;99.90;;;;;;4958802;28;20023;-89
2022/01/08 05:50:26;;;;;;;9.35;4.18;;;3.30;99.90;;;;;;4958743;28;20037;-88
2022/01/08 05:52:51;;;;;;;10.30;3.40;;;3.30;99.90;;;;;;4957481;28;20026;-89
2022/01/08 05:55:17;;;;;;;7.70;3.58;;;3.30;99.90;;;;;;4957997;28;20138;-89
2022/01/08 05:57:43;;;;;;;7.32;3.00;;;3.30;99.90;;;;;;4958334;28;20061;-90
2022/01/08 06:00:10;;;;;;;10.93;4.18;;;3.30;99.90;;;;;;4958136;28;20400;-90
2022/01/08 06:02:37;;;;;;;11.85;3.85;;;3.30;99.90;;;;;;4975317;28;20082;-89
2022/01/08 06:05:04;;;;;;;15.70;5.32;;;3.30;99.90;;;;;;4958181;28;20030;-89
2022/01/08 06:07:30;;;;;;;12.20;3.88;;;3.30;99.90;;;;;;4957905;28;20412;-89
2022/01/08 06:09:55;;;;;;;11.27;3.95;;;3.30;99.90;;;;;;4957891;28;20023;-88
2022/01/08 06:12:21;;;;;;;9.13;3.63;;;3.30;99.90;;;;;;4958148;28;20031;-90
2022/01/08 06:14:47;;;;;;;12.05;5.43;;;3.30;99.90;;;;;;4958012;28;20031;-89
2022/01/08 06:17:12;;;;;;;10.15;4.00;;;3.30;99.90;;;;;;4957869;28;20027;-89
2022/01/08 06:19:38;;;;;;;16.15;4.85;;;3.30;99.90;;;;;;4957973;28;20506;-90
2022/01/08 06:22:04;;;;;;;12.30;4.70;;;3.30;99.90;;;;;;4957698;28;20105;-89
2022/01/08 06:24:30;;;;;;;13.00;4.95;;;3.30;99.90;;;;;;4957806;28;20178;-90
2022/01/08 06:26:56;;;;;;;15.52;5.65;;;3.30;99.90;;;;;;4957951;28;20057;-90
2022/01/08 06:29:22;;;;;;;8.52;3.53;;;3.30;99.90;;;;;;4957695;28;20031;-89
2022/01/08 06:31:48;;;;;;;21.80;7.25;;;3.30;99.90;;;;;;4957587;28;20034;-90
2022/01/08 06:34:13;;;;;;;19.95;5.30;;;3.30;99.90;;;;;;4957591;28;20041;-87
2022/01/08 06:36:39;;;;;;;15.35;4.75;;;3.30;99.90;;;;;;4957672;28;20421;-87
2022/01/08 06:39:05;;;;;;;13.60;5.32;;;3.30;99.90;;;;;;4957354;28;20423;-90
2022/01/08 06:41:30;;;;;;;21.75;6.25;;;3.30;99.90;;;;;;4957296;28;20484;-87
2022/01/08 06:43:59;;;;;;;14.07;4.55;;;3.30;99.90;;;;;;4957389;28;20023;-90
2022/01/08 06:46:25;;;;;;;17.08;4.90;;;3.30;99.90;;;;;;4957402;28;20093;-89
2022/01/08 06:48:51;;;;;;;10.98;5.47;;;3.30;99.90;;;;;;4957651;28;20031;-90
2022/01/08 06:51:17;;;;;;;13.18;4.90;;;3.30;99.90;;;;;;4957251;28;20027;-90
2022/01/08 06:53:42;;;;;;;13.77;5.65;;;3.30;99.90;;;;;;4956976;28;20109;-89
2022/01/08 06:56:08;;;;;;;13.57;5.20;;;3.30;99.90;;;;;;4974534;28;20027;-91
2022/01/08 06:58:34;;;;;;;17.08;5.28;;;3.30;99.90;;;;;;4957317;28;20035;-91
2022/01/08 07:01:00;;;;;;;20.85;5.25;;;3.30;99.90;;;;;;4957321;28;20027;-89
2022/01/08 07:03:26;;;;;;;14.30;4.20;;;3.40;99.90;;;;;;4957312;28;20027;-88
2022/01/08 07:05:52;;;;;;;14.82;5.70;;;3.40;99.90;;;;;;4960516;28;20046;-88
2022/01/08 07:08:18;;;;;;;7.97;4.90;;;3.40;99.90;;;;;;4951177;29;20156;-88
2022/01/08 07:10:44;;;;;;;16.13;7.35;;;3.50;99.90;;;;;;4959265;29;20133;-88
2022/01/08 07:13:10;;;;;;;15.05;5.30;;;3.50;99.90;;;;;;4961418;28;20051;-88
2022/01/08 07:15:35;;;;;;;20.25;6.63;;;3.50;99.90;;;;;;4962200;28;20058;-89
2022/01/08 07:18:01;;;;;;;11.98;6.65;;;3.50;99.90;;;;;;4961344;28;20019;-88
2022/01/08 07:20:27;;;;;;;14.98;7.32;;;3.50;99.90;;;;;;4961116;28;20095;-88
2022/01/08 07:22:53;;;;;;;16.77;7.80;;;3.50;99.90;;;;;;4960915;28;20027;-87
2022/01/08 07:25:18;;;;;;;16.10;7.47;;;3.60;99.90;;;;;;4960888;28;20034;-88
2022/01/08 07:27:44;;;;;;;18.85;7.57;;;3.60;99.90;;;;;;4960834;28;20022;-89
2022/01/08 07:30:11;;;;;;;19.60;8.27;;;3.60;99.90;;;;;;4960854;28;20038;-90
2022/01/08 07:32:45;;;;;;;20.25;7.57;;;3.60;99.90;;;;;;4960425;28;20448;-90
2022/01/08 07:35:14;;;;;;;15.55;8.48;;;3.50;99.90;;;;;;4960235;28;20555;-90
2022/01/08 07:37:42;;;;;;;17.42;8.35;;;3.60;99.90;;;;;;4959730;28;20027;-89
2022/01/08 07:40:10;;;;;;;16.85;8.02;;;3.60;99.90;;;;;;4959488;28;20555;-88
2022/01/08 07:42:36;;;;;;;16.58;7.57;;;3.60;99.90;;;;;;4960161;28;20061;-90
2022/01/08 07:45:02;;;;;;;15.85;7.07;;;3.60;99.90;;;;;;4959824;28;20027;-91
2022/01/08 07:47:28;;;;;;;17.95;7.82;;;3.60;99.90;;;;;;4959902;28;20035;-89
2022/01/08 07:49:54;;;;;;;16.10;8.65;;;3.60;99.90;;;;;;4959867;28;20114;-89
2022/01/08 07:52:20;;;;;;;16.00;8.10;;;3.70;99.90;;;;;;4959528;28;20058;-90
2022/01/08 07:54:46;;;;;;;17.67;9.68;;;3.70;99.90;;;;;;4959898;28;20428;-88
2022/01/08 07:57:11;;;;;;;21.00;10.07;;;3.70;99.90;;;;;;4959890;28;20029;-88
2022/01/08 07:59:37;;;;;;;15.23;8.23;;;3.80;99.90;;;;;;4965555;28;20039;-88
2022/01/08 08:02:03;;;;;;;17.52;9.32;;;3.80;99.90;;;;;;4959647;28;20023;-89
2022/01/08 08:04:29;;;;;;;21.00;10.10;;;3.80;99.90;;;;;;4963311;28;20118;-89
2022/01/08 08:06:54;;;;;;;23.50;10.35;;;3.80;99.90;;;;;;4959811;28;20093;-88
2022/01/08 08:09:20;;;;;;;19.65;10.75;;;3.80;99.90;;;;;;4964773;28;20444;-88
2022/01/08 08:11:46;;;;;;;20.10;9.30;;;3.90;99.90;;;;;;4959390;28;20110;-88
2022/01/08 08:14:12;;;;;;;19.38;9.55;;;3.90;99.90;;;;;;4959059;28;20058;-89
2022/01/08 08:16:38;;;;;;;15.85;8.73;;;3.90;99.90;;;;;;4961498;28;20077;-90
2022/01/08 08:19:03;;;;;;;19.48;9.70;;;3.90;99.90;;;;;;4958547;28;20112;-89
2022/01/08 08:21:30;;;;;;;20.60;9.73;;;3.90;99.90;;;;;;4961812;28;20023;-88
2022/01/08 08:23:55;;;;;;;21.88;9.95;;;3.90;99.90;;;;;;4959197;28;20143;-89
2022/01/08 08:26:21;;;;;;;18.85;10.02;;;3.90;99.90;;;;;;4959355;28;20049;-90
2022/01/08 08:28:47;;;;;;;15.82;9.18;;;3.90;99.90;;;;;;4958715;28;20089;-89
2022/01/08 08:31:13;;;;;;;19.55;9.43;;;4.00;99.90;;;;;;4957265;28;20038;-90
2022/01/08 08:33:39;;;;;;;18.08;9.70;;;4.00;99.90;;;;;;4959612;28;20073;-89
2022/01/08 08:36:05;;;;;;;23.52;10.07;;;4.00;99.90;;;;;;4958953;28;20033;-90
2022/01/08 08:38:31;;;;;;;19.27;9.50;;;4.00;99.90;;;;;;4959251;28;20485;-89
2022/01/08 08:40:57;;;;;;;24.23;10.57;;;4.00;99.90;;;;;;4959859;28;20038;-90
2022/01/08 08:43:23;;;;;;;21.23;10.88;;;4.10;99.90;;;;;;4974346;28;20031;-90
2022/01/08 08:45:48;;;;;;;23.75;10.77;;;4.10;99.90;;;;;;4966839;28;20031;-89
2022/01/08 08:48:15;;;;;;;25.70;10.55;;;4.20;99.90;;;;;;4959041;28;20083;-90
2022/01/08 08:50:42;;;;;;;18.13;9.50;;;4.20;99.90;;;;;;4958550;28;20018;-88
2022/01/08 08:53:08;;;;;;;21.55;10.02;;;4.20;99.90;;;;;;4958505;28;20114;-90
2022/01/08 08:55:34;;;;;;;18.17;9.68;;;4.20;99.90;;;;;;4958808;28;20047;-91
2022/01/08 08:58:02;;;;;;;22.02;10.85;;;4.30;99.90;;;;;;4959320;28;20289;-93
2022/01/08 09:00:30;;;;;;;21.33;11.15;;;4.40;99.90;;;;;;4963289;28;20380;-93
2022/01/08 09:02:56;;;;;;;19.23;9.93;;;4.50;99.90;;;;;;4963823;28;20019;-94
2022/01/08 09:05:22;;;;;;;14.38;7.45;;;4.50;99.90;;;;;;4962463;28;20114;-93
2022/01/08 09:07:48;;;;;;;12.85;7.53;;;4.50;99.90;;;;;;4959419;28;20030;-93
2022/01/08 09:10:25;;;;;;;14.98;7.28;;;4.60;99.90;;;;;;4964039;28;20019;-94
2022/01/08 09:12:52;;;;;;;16.35;7.78;;;4.60;99.90;;;;;;4968070;28;20042;-93
2022/01/08 09:15:21;;;;;;;13.45;6.68;;;4.60;99.90;;;;;;4961480;28;20050;-93
2022/01/08 09:17:49;;;;;;;12.03;6.93;;;4.60;99.90;;;;;;4959729;28;20031;-93
2022/01/08 09:20:15;;;;;;;13.10;6.93;;;4.70;99.90;;;;;;4959000;28;20035;-94
2022/01/08 09:22:41;;;;;;;10.95;6.22;;;4.70;99.90;;;;;;4959208;28;20038;-94
2022/01/08 09:25:08;;;;;;;9.60;6.10;;;4.70;99.90;;;;;;4959114;28;20033;-94
2022/01/08 09:27:34;;;;;;;7.13;4.97;;;4.70;99.90;;;;;;4958242;28;20029;-95
2022/01/08 09:30:04;;;;;;;9.82;5.35;;;4.70;99.90;;;;;;4958591;28;20395;-93
2022/01/08 09:32:30;;;;;;;7.50;3.90;;;4.80;99.90;;;;;;4958188;28;20031;-93
2022/01/08 09:35:25;;;;;;;4.70;3.25;;;4.80;99.90;;;;;;4957709;28;20647;-93
2022/01/08 09:37:52;;;;;;;7.20;2.97;;;4.90;99.90;;;;;;4958473;28;20035;-92
2022/01/08 09:40:19;;;;;;;3.85;2.42;;;5.00;99.90;;;;;;4956455;28;20038;-93
2022/01/08 09:42:45;;;;;;;2.08;1.75;;;5.10;99.90;;;;;;4959272;28;20022;-91
2022/01/08 09:45:11;;;;;;;3.28;2.17;;;5.20;99.90;;;;;;4964177;28;20027;-92
2022/01/08 09:47:37;;;;;;;2.63;1.85;;;5.30;99.90;;;;;;4966141;28;20030;-93
2022/01/08 09:50:07;;;;;;;4.38;2.00;;;5.40;99.90;;;;;;4965842;28;20043;-93
2022/01/08 09:52:36;;;;;;;2.20;1.70;;;5.50;99.90;;;;;;4965542;28;20039;-95
2022/01/08 09:55:03;;;;;;;3.33;1.70;;;5.60;99.90;;;;;;4963745;28;20042;-95
2022/01/08 09:58:22;;;;;;;1.40;1.30;;;5.70;99.90;;;;;;4962732;28;20117;-92
2022/01/08 10:00:47;;;;;;;1.67;1.42;;;5.80;99.90;;;;;;4973356;28;20452;-93
2022/01/08 10:03:22;;;;;;;1.33;1.05;;;5.90;99.90;;;;;;4961134;28;20055;-93
2022/01/08 10:05:58;;;;;;;1.35;1.25;;;5.90;99.90;;;;;;4957310;28;20118;-93
2022/01/08 10:08:31;;;;;;;2.13;1.40;;;6.00;99.90;;;;;;4956801;28;20042;-94
2022/01/08 10:11:06;;;;;;;3.13;1.30;;;6.00;99.90;;;;;;4957772;28;20027;-93
2022/01/08 10:13:38;;;;;;;1.88;1.33;;;6.10;99.90;;;;;;4958679;28;20023;-94
2022/01/08 10:19:00;;;;;;;1.58;0.90;;;6.10;99.90;;;;;;4967079;28;20057;-94
2022/01/08 10:21:37;;;;;;;2.45;1.45;;;6.20;99.90;;;;;;4957642;28;20042;-93
2022/01/08 10:24:08;;;;;;;2.13;1.27;;;6.20;99.90;;;;;;4955964;28;20042;-93
2022/01/08 10:26:40;;;;;;;2.72;1.80;;;6.30;99.90;;;;;;4962800;28;20077;-93
2022/01/08 10:29:14;;;;;;;1.63;1.17;;;6.30;99.90;;;;;;4955734;28;20031;-93
2022/01/08 10:31:42;;;;;;;3.72;2.13;;;6.40;99.90;;;;;;4960122;28;20031;-95
2022/01/08 10:34:21;;;;;;;4.07;2.28;;;6.40;99.90;;;;;;4971320;28;20054;-93
2022/01/08 10:36:49;;;;;;;3.75;2.42;;;6.50;99.90;;;;;;4957866;28;20022;-93
2022/01/08 10:39:21;;;;;;;2.35;1.95;;;6.60;99.90;;;;;;4956490;28;20030;-94
2022/01/08 10:41:50;;;;;;;2.70;1.70;;;6.60;99.90;;;;;;4954291;28;20031;-93
2022/01/08 10:44:18;;;;;;;2.10;1.50;;;6.70;99.90;;;;;;4956929;28;20019;-94
2022/01/08 10:47:05;;;;;;;1.90;1.50;;;6.70;99.90;;;;;;4956420;28;20027;-93
2022/01/08 10:49:40;;;;;;;2.35;1.27;;;6.80;99.90;;;;;;4954658;28;20023;-93
2022/01/08 10:52:12;;;;;;;3.45;1.45;;;6.90;99.90;;;;;;4967961;28;20435;-94
2022/01/08 10:54:40;;;;;;;1.23;1.00;;;6.90;99.90;;;;;;4958989;28;20105;-95
2022/01/08 10:57:09;;;;;;;2.53;1.40;;;7.00;99.90;;;;;;4956147;28;20023;-94
2022/01/08 10:59:41;;;;;;;2.05;1.20;;;7.00;99.90;;;;;;4959844;28;20042;-93
2022/01/08 11:02:17;;;;;;;2.88;1.60;;;7.10;99.90;;;;;;4957285;28;20060;-95
2022/01/08 11:04:53;;;;;;;2.67;1.60;;;7.10;99.90;;;;;;4957838;28;20027;-95
2022/01/08 11:07:31;;;;;;;3.72;1.33;;;7.20;99.90;;;;;;4947640;29;20027;-93
2022/01/08 11:10:20;;;;;;;1.13;0.88;;;7.20;99.90;;;;;;4953155;28;20029;-95
2022/01/08 11:12:51;;;;;;;1.50;1.20;;;7.30;99.90;;;;;;4957584;28;20035;-93
2022/01/08 11:15:46;;;;;;;;;;;;;;;;;;;;;
2022/01/08 11:18:11;;;;;;;1.77;1.15;;;7.40;99.90;;;;;;4974404;28;20039;-92
2022/01/08 11:20:52;;;;;;;1.08;0.95;;;7.50;99.90;;;;;;4958529;28;20073;-93
2022/01/08 11:23:25;;;;;;;1.33;1.10;;;7.50;99.90;;;;;;4958274;28;20027;-93
2022/01/08 11:33:31;;;;;;;;;;;;;;;;;;;;;
2022/01/08 11:36:36;;;;;;;3.40;0.88;;;7.60;99.90;;;;;;4891772;29;20051;-94
2022/01/08 11:40:07;;;;;;;;;;;;;;;;;;;;;
2022/01/08 11:43:04;;;;;;;4.53;1.30;;;7.60;99.90;;;;;;4822562;29;20038;-95
2022/01/08 11:45:36;;;;;;;4.90;1.38;;;7.50;99.90;;;;;;4806211;29;20038;-93
2022/01/08 11:48:04;;;;;;;3.35;1.35;;;7.30;99.90;;;;;;4786412;29;20074;-92
2022/01/08 11:50:31;;;;;;;4.05;1.05;;;7.20;99.90;;;;;;4790855;29;20076;-92
2022/01/08 11:53:19;;;;;;;14.27;4.07;;;7.10;99.90;;;;;;4792746;29;20039;-93
2022/01/08 11:55:54;;;;;;;14.20;2.67;;;7.00;99.90;;;;;;4804777;29;20146;-94
2022/01/08 11:58:23;;;;;;;11.75;2.20;;;7.00;99.90;;;;;;4822100;29;20091;-91
2022/01/08 12:00:55;;;;;;;11.40;2.65;;;6.90;99.90;;;;;;4806623;29;20057;-92
2022/01/08 12:03:47;;;;;;;18.20;4.50;;;6.90;99.90;;;;;;4822749;29;20026;-93
2022/01/08 12:06:36;;;;;;;18.25;3.55;;;6.90;99.90;;;;;;4791592;29;20278;-92
2022/01/08 12:09:18;;;;;;;;;;;;;;;;;;;;;
2022/01/08 12:12:44;;;;;;;15.85;2.55;;;6.90;99.90;;;;;;4816144;29;20045;-94
2022/01/08 12:22:30;;;;;;;22.80;3.70;;;6.70;99.90;;;;;;4914832;29;20048;-95
2022/01/08 12:29:31;;;;;;;9.98;1.92;;;6.60;99.90;;;;;;4885625;29;20040;-95
2022/01/08 12:32:45;;;;;;;13.35;2.90;;;6.40;99.90;;;;;;4864677;29;20120;-94
2022/01/08 12:35:58;;;;;;;8.73;2.10;;;6.30;99.90;;;;;;4823534;29;20519;-95
2022/01/08 12:38:59;;;;;;;18.88;3.00;;;6.20;99.90;;;;;;4863411;29;20021;-94
2022/01/08 12:41:42;;;;;;;10.85;2.78;;;6.20;99.90;;;;;;4861893;29;20542;-95
2022/01/08 12:48:35;;;;;;;11.32;2.45;;;6.10;99.90;;;;;;4808252;29;20149;-93
2022/01/08 12:51:05;;;;;;;17.83;2.90;;;6.00;99.90;;;;;;4790089;29;20110;-92
2022/01/08 12:53:32;;;;;;;9.20;1.95;;;6.00;99.90;;;;;;4790747;29;20072;-92
2022/01/08 12:55:58;;;;;;;8.60;1.85;;;6.00;99.90;;;;;;4802395;29;20151;-92
2022/01/08 12:58:35;;;;;;;14.65;1.67;;;6.10;99.90;;;;;;4809625;29;20068;-92
2022/01/08 13:01:14;;;;;;;12.55;2.83;;;6.20;99.90;;;;;;4809341;29;20201;-92
2022/01/08 13:03:52;;;;;;;13.73;2.25;;;6.30;99.90;;;;;;4824962;29;20034;-92
2022/01/08 13:06:17;;;;;;;27.33;6.78;;;6.50;99.90;;;;;;4828369;29;20553;-93
2022/01/08 13:08:45;;;;;;;17.08;3.08;;;6.60;99.90;;;;;;4826998;29;20071;-91
2022/01/08 13:11:16;;;;;;;12.40;3.13;;;6.60;99.90;;;;;;4827475;29;20054;-93
2022/01/08 13:13:48;;;;;;;13.15;2.60;;;6.70;99.90;;;;;;4827976;29;20046;-93
2022/01/08 13:16:17;;;;;;;10.30;2.67;;;6.70;99.90;;;;;;4827805;29;20046;-93
2022/01/08 13:18:57;;;;;;;16.27;3.63;;;6.80;99.90;;;;;;4857922;29;20198;-92
2022/01/08 13:21:44;;;;;;;12.30;3.38;;;6.80;99.90;;;;;;4882637;29;20116;-92
2022/01/08 13:24:32;;;;;;;17.08;3.50;;;6.80;99.90;;;;;;4915945;28;20035;-94
2022/01/08 13:27:00;;;;;;;19.60;5.07;;;6.80;99.90;;;;;;4957626;28;20050;-92
2022/01/08 13:29:26;;;;;;;26.10;4.60;;;6.80;99.90;;;;;;4955973;29;20074;-91
2022/01/08 13:32:05;;;;;;;25.15;4.55;;;6.80;99.90;;;;;;4956054;29;20028;-93
2022/01/08 13:34:36;;;;;;;26.90;2.92;;;6.70;99.90;;;;;;4970325;28;20090;-90
2022/01/08 13:37:04;;;;;;;30.23;4.10;;;6.70;99.90;;;;;;4957454;28;20031;-91
2022/01/08 13:39:35;;;;;;;27.20;3.53;;;6.70;99.90;;;;;;4955630;29;20577;-92
2022/01/08 13:42:19;;;;;;;29.52;4.28;;;6.70;99.90;;;;;;4957091;28;20033;-94
2022/01/08 13:44:52;;;;;;;31.73;4.38;;;6.70;99.90;;;;;;4956149;29;20023;-91
2022/01/08 13:47:39;;;;;;;31.48;6.22;;;6.70;99.90;;;;;;4955261;29;20035;-92
2022/01/08 13:50:23;;;;;;;27.10;4.88;;;6.70;99.90;;;;;;4937880;29;20046;-91
2022/01/08 13:53:03;;;;;;;33.45;6.85;;;6.70;99.90;;;;;;4967219;28;20026;-91
2022/01/08 13:55:32;;;;;;;31.30;5.57;;;6.70;99.90;;;;;;4971140;28;20050;-92
2022/01/08 13:58:19;;;;;;;34.78;6.07;;;6.70;99.90;;;;;;4977206;28;20278;-90